Time;durP1;ratioP1;P1;durP2;ratioP2;P2;SDS_P1;SDS_P2;PMS_P1;PMS_P2;Temp;Humidity;BMP_temperature;BMP_pressure;BME280_temperature;BME280_humidity;BME280_pressure;Samples;Min_cycle;Max_cycle;Signal;HPM_P1;HPM_P2
2021/04/17 09:55:16;;;;;;;6.30;5.70;;;11.50;74.30;;;;;;1054225;26;20786;-81
2021/04/17 09:57:46;;;;;;;6.10;5.60;;;11.40;74.00;;;;;;4937624;29;21011;-81
2021/04/17 10:00:13;;;;;;;6.10;5.60;;;11.50;73.80;;;;;;4936761;29;20452;-83
2021/04/17 10:02:41;;;;;;;5.70;5.03;;;11.70;74.10;;;;;;4936574;29;20442;-84
2021/04/17 10:05:09;;;;;;;8.70;6.13;;;11.60;71.00;;;;;;4936682;29;20547;-82
2021/04/17 10:07:41;;;;;;;6.03;5.53;;;11.60;71.70;;;;;;4936966;29;21096;-83
2021/04/17 10:10:09;;;;;;;7.20;6.50;;;11.80;73.40;;;;;;4936171;29;20452;-79
2021/04/17 10:12:48;;;;;;;6.77;6.13;;;12.00;73.30;;;;;;4936285;29;20513;-83
2021/04/17 10:15:15;;;;;;;6.50;5.97;;;12.30;73.30;;;;;;4938539;29;20484;-84
2021/04/17 10:17:42;;;;;;;8.80;8.00;;;12.60;73.50;;;;;;4937766;29;20520;-82
2021/04/17 10:20:10;;;;;;;8.20;7.40;;;12.60;71.00;;;;;;4938120;29;20449;-79
2021/04/17 10:22:37;;;;;;;5.30;4.90;;;12.50;69.80;;;;;;4937734;29;20462;-83
2021/04/17 10:25:07;;;;;;;8.20;7.37;;;12.30;69.50;;;;;;4938121;29;20481;-83
2021/04/17 10:27:35;;;;;;;7.17;6.30;;;12.20;70.40;;;;;;4937463;29;20845;-83
2021/04/17 10:30:15;;;;;;;7.90;6.43;;;12.10;71.30;;;;;;4938876;29;20458;-82
2021/04/17 10:32:42;;;;;;;7.40;6.70;;;11.80;71.10;;;;;;4938513;29;20460;-80
2021/04/17 10:35:10;;;;;;;6.57;5.93;;;11.70;71.30;;;;;;4938953;29;20478;-79
2021/04/17 10:37:43;;;;;;;7.70;7.10;;;11.90;72.90;;;;;;4940409;29;20450;-83
2021/04/17 10:40:12;;;;;;;7.57;6.87;;;12.10;71.50;;;;;;4936810;29;20457;-82
2021/04/17 10:42:46;;;;;;;6.87;6.27;;;12.10;71.60;;;;;;4936177;29;20464;-82
2021/04/17 10:45:15;;;;;;;8.30;7.60;;;12.30;72.20;;;;;;4937034;29;20489;-81
2021/04/17 10:47:41;;;;;;;6.43;5.83;;;12.50;71.40;;;;;;4937014;29;20541;-82
2021/04/17 10:50:20;;;;;;;7.27;6.67;;;12.60;71.20;;;;;;4936037;29;20956;-81
2021/04/17 10:52:56;;;;;;;6.33;5.33;;;12.90;71.30;;;;;;4936522;29;20453;-80
2021/04/17 10:55:31;;;;;;;6.60;6.00;;;13.10;70.20;;;;;;4936612;29;20520;-79
2021/04/17 10:57:57;;;;;;;8.53;6.63;;;13.30;67.60;;;;;;4939325;29;20455;-80
2021/04/17 11:00:30;;;;;;;7.10;6.40;;;13.20;65.60;;;;;;4939125;29;20476;-79
2021/04/17 11:02:56;;;;;;;7.07;6.47;;;13.20;66.20;;;;;;4939708;29;20559;-79
2021/04/17 11:05:22;;;;;;;6.77;4.90;;;13.20;66.40;;;;;;4958526;29;20477;-81
2021/04/17 11:07:58;;;;;;;4.93;4.40;;;13.10;64.80;;;;;;4957914;29;20468;-80
2021/04/17 11:10:33;;;;;;;4.77;4.37;;;13.10;64.70;;;;;;4959070;29;20491;-79
2021/04/17 11:12:59;;;;;;;5.07;4.63;;;13.30;65.70;;;;;;4958920;29;20465;-80
2021/04/17 11:15:27;;;;;;;6.20;5.67;;;13.50;65.30;;;;;;4956658;29;20479;-81
2021/04/17 11:18:16;;;;;;;5.00;4.60;;;13.60;64.80;;;;;;4956361;29;20461;-82
2021/04/17 11:20:54;;;;;;;5.87;5.27;;;13.80;65.00;;;;;;4956277;29;20436;-81
2021/04/17 11:23:41;;;;;;;6.10;5.60;;;14.00;64.90;;;;;;4956559;29;20873;-81
2021/04/17 11:26:11;;;;;;;6.23;5.53;;;14.20;63.10;;;;;;4963916;29;20634;-80
2021/04/17 11:28:40;;;;;;;5.93;5.43;;;14.30;62.80;;;;;;4969335;29;20470;-80
2021/04/17 11:31:08;;;;;;;6.13;5.03;;;13.80;61.20;;;;;;4969856;29;20503;-80
2021/04/17 11:33:35;;;;;;;5.13;4.63;;;13.80;62.10;;;;;;4968489;29;20468;-79
2021/04/17 11:36:02;;;;;;;5.03;4.57;;;13.80;61.20;;;;;;4959946;29;20475;-83
2021/04/17 11:38:29;;;;;;;4.47;4.07;;;14.00;62.10;;;;;;4956537;29;20449;-81
2021/04/17 11:40:55;;;;;;;4.23;3.90;;;14.30;62.60;;;;;;4956416;29;20479;-81
2021/04/17 11:43:22;;;;;;;4.17;3.73;;;14.50;59.90;;;;;;4956499;29;20456;-81
2021/04/17 11:45:48;;;;;;;5.30;4.90;;;14.80;61.40;;;;;;4955848;29;20574;-81
2021/04/17 11:48:14;;;;;;;5.47;4.60;;;15.20;60.70;;;;;;4956427;29;20444;-81
2021/04/17 11:50:42;;;;;;;7.47;6.50;;;15.70;58.40;;;;;;4955907;29;20521;-81
2021/04/17 11:53:08;;;;;;;5.47;5.00;;;15.70;57.60;;;;;;4956267;29;20457;-81
2021/04/17 11:55:35;;;;;;;7.70;6.93;;;15.60;56.70;;;;;;4955668;29;20492;-82
2021/04/17 11:58:01;;;;;;;5.87;5.37;;;15.10;56.70;;;;;;4956352;29;20441;-81
2021/04/17 12:00:28;;;;;;;5.83;5.33;;;15.00;58.20;;;;;;4957014;29;20453;-80
2021/04/17 12:02:54;;;;;;;6.47;5.87;;;15.40;59.20;;;;;;4957057;29;20457;-82
2021/04/17 12:05:20;;;;;;;5.00;4.30;;;15.60;56.50;;;;;;4956659;29;21180;-80
2021/04/17 12:07:47;;;;;;;5.23;4.73;;;15.70;56.10;;;;;;4957423;29;20460;-80
2021/04/17 12:10:16;;;;;;;5.37;4.43;;;15.90;56.50;;;;;;4956550;29;20838;-83
2021/04/17 12:12:43;;;;;;;5.03;4.63;;;15.70;53.90;;;;;;4956391;29;20460;-80
2021/04/17 12:15:11;;;;;;;4.30;4.00;;;14.80;53.80;;;;;;4959851;28;20475;-80
2021/04/17 12:17:37;;;;;;;5.80;4.97;;;14.90;55.80;;;;;;4960344;29;20829;-80
2021/04/17 12:20:04;;;;;;;5.50;5.00;;;14.70;55.50;;;;;;4960414;29;20507;-80
2021/04/17 12:22:30;;;;;;;5.03;4.60;;;14.60;55.70;;;;;;4959380;29;20461;-80
2021/04/17 12:24:57;;;;;;;7.33;4.40;;;14.70;56.80;;;;;;4960050;29;20477;-81
2021/04/17 12:27:24;;;;;;;4.90;4.60;;;14.90;56.20;;;;;;4937478;29;20878;-81
2021/04/17 12:29:50;;;;;;;5.37;4.27;;;15.20;57.00;;;;;;4933028;29;20451;-81
2021/04/17 12:32:17;;;;;;;6.27;5.67;;;15.60;56.50;;;;;;4927400;29;20489;-81
2021/04/17 12:34:43;;;;;;;6.63;4.33;;;16.00;56.20;;;;;;4930111;29;20479;-81
2021/04/17 12:37:09;;;;;;;5.10;4.60;;;16.20;53.60;;;;;;4930841;29;20523;-81
2021/04/17 12:39:36;;;;;;;4.80;4.30;;;16.30;54.00;;;;;;4931404;29;20501;-81
2021/04/17 12:42:03;;;;;;;4.87;4.53;;;16.20;53.30;;;;;;4925236;29;20444;-81
2021/04/17 12:44:29;;;;;;;6.27;4.17;;;16.20;52.80;;;;;;4932307;29;20476;-81
2021/04/17 12:46:56;;;;;;;4.30;3.90;;;15.90;52.80;;;;;;4926397;29;20455;-81
2021/04/17 12:49:22;;;;;;;4.40;4.10;;;15.90;53.30;;;;;;4928553;29;20456;-81
2021/04/17 12:51:48;;;;;;;4.60;4.10;;;15.80;53.60;;;;;;4927122;29;20492;-82
2021/04/17 12:54:14;;;;;;;6.60;3.83;;;15.90;54.10;;;;;;4927184;29;20845;-81
2021/04/17 12:56:41;;;;;;;5.77;4.90;;;15.90;53.40;;;;;;4927237;29;20477;-81
2021/04/17 12:59:08;;;;;;;4.90;4.60;;;15.70;52.80;;;;;;4933369;29;20482;-81
2021/04/17 13:01:34;;;;;;;4.37;4.00;;;15.60;52.30;;;;;;4930118;29;20867;-81
2021/04/17 13:04:00;;;;;;;5.47;4.97;;;15.30;52.60;;;;;;4924734;29;20458;-81
2021/04/17 13:06:29;;;;;;;4.27;3.87;;;15.10;53.60;;;;;;4933919;29;20516;-81
2021/04/17 13:08:55;;;;;;;5.43;3.90;;;14.80;53.50;;;;;;4936061;29;20940;-81
2021/04/17 13:11:22;;;;;;;6.83;4.53;;;14.70;54.20;;;;;;4937990;29;20481;-82
2021/04/17 13:13:48;;;;;;;5.03;4.50;;;14.60;53.50;;;;;;4938125;29;20434;-82
2021/04/17 13:16:15;;;;;;;3.90;3.60;;;14.60;54.50;;;;;;4928447;29;20505;-82
2021/04/17 13:18:49;;;;;;;3.70;3.40;;;14.40;53.00;;;;;;4925671;29;20460;-84
2021/04/17 13:21:19;;;;;;;6.50;4.80;;;14.40;53.20;;;;;;4923692;29;20446;-82
2021/04/17 13:23:45;;;;;;;8.00;6.87;;;14.50;53.20;;;;;;4920546;29;20503;-83
2021/04/17 13:26:15;;;;;;;3.97;3.40;;;14.40;52.80;;;;;;4920026;29;20493;-82
2021/04/17 13:28:42;;;;;;;3.93;3.53;;;14.50;53.90;;;;;;4920975;29;21070;-83
2021/04/17 13:31:08;;;;;;;6.37;5.33;;;14.40;53.30;;;;;;4921498;29;21056;-82
2021/04/17 13:33:35;;;;;;;4.60;4.30;;;14.30;53.10;;;;;;4922458;29;20490;-82
2021/04/17 13:36:02;;;;;;;4.07;3.43;;;14.40;53.70;;;;;;4920813;29;20580;-82
2021/04/17 13:38:28;;;;;;;3.93;3.53;;;14.40;53.80;;;;;;4920557;29;20467;-82
2021/04/17 13:40:54;;;;;;;3.70;3.40;;;14.50;52.90;;;;;;4920172;29;20461;-81
2021/04/17 13:43:21;;;;;;;3.83;3.20;;;14.40;53.30;;;;;;4920035;29;20542;-82
2021/04/17 13:45:47;;;;;;;3.57;3.37;;;14.50;53.50;;;;;;4920917;29;20567;-82
2021/04/17 13:48:14;;;;;;;3.67;3.37;;;14.40;52.80;;;;;;4919606;29;20459;-82
2021/04/17 13:50:41;;;;;;;3.77;3.30;;;14.50;53.20;;;;;;4921791;29;20514;-82
2021/04/17 13:53:11;;;;;;;3.90;3.60;;;14.50;53.10;;;;;;4921636;29;20446;-83
2021/04/17 13:55:38;;;;;;;5.70;3.67;;;14.60;53.50;;;;;;4905038;29;20491;-82
2021/04/17 13:58:06;;;;;;;4.27;3.87;;;14.80;53.70;;;;;;4924781;29;20454;-81
2021/04/17 15:03:27;;;;;;;3.70;3.50;;;14.90;50.90;;;;;;4236943;26;20478;-86
2021/04/17 15:05:53;;;;;;;3.43;2.73;;;14.80;51.20;;;;;;4949712;28;20469;-83
2021/04/17 15:08:21;;;;;;;3.27;2.97;;;14.50;50.80;;;;;;4948880;29;20459;-84
2021/04/17 15:10:47;;;;;;;2.73;2.53;;;14.40;52.10;;;;;;4944923;29;20493;-84
2021/04/17 15:13:13;;;;;;;3.20;2.90;;;14.10;51.70;;;;;;4946124;29;20836;-84
2021/04/17 15:15:39;;;;;;;3.50;2.40;;;14.00;52.90;;;;;;4943934;29;20560;-83
2021/04/17 15:18:06;;;;;;;3.23;2.80;;;14.00;53.20;;;;;;4942843;29;20446;-82
2021/04/17 15:20:34;;;;;;;3.60;2.93;;;14.00;53.40;;;;;;4942865;29;20465;-82
2021/04/17 15:23:00;;;;;;;5.17;3.53;;;14.10;54.20;;;;;;4942430;29;20484;-82
2021/04/17 15:25:27;;;;;;;4.17;3.80;;;14.10;54.50;;;;;;4943476;29;20480;-84
2021/04/17 15:31:09;;;;;;;4.77;3.90;;;13.90;55.30;;;;;;4904826;29;20443;-85
2021/04/17 15:33:36;;;;;;;3.20;2.93;;;13.70;55.60;;;;;;4896458;29;20494;-84
2021/04/17 15:36:55;;;;;;;3.37;3.07;;;13.70;55.70;;;;;;4944459;29;20465;-85
2021/04/17 15:39:23;;;;;;;3.37;3.07;;;13.60;55.80;;;;;;4943292;29;20450;-84
2021/04/17 15:41:50;;;;;;;3.90;2.93;;;13.40;55.70;;;;;;4943850;29;20442;-87
2021/04/17 15:44:16;;;;;;;5.30;4.40;;;13.40;56.20;;;;;;4943839;29;20477;-84
2021/04/17 15:46:42;;;;;;;3.40;3.00;;;13.30;56.50;;;;;;4944004;29;20454;-84
2021/04/17 15:49:09;;;;;;;4.60;3.00;;;13.40;56.70;;;;;;4945632;29;20518;-83
2021/04/17 15:51:35;;;;;;;3.90;3.60;;;13.30;56.80;;;;;;4946961;29;20500;-84
2021/04/17 18:30:27;;;;;;;4.40;3.75;;;8.90;90.30;;;;;;4940914;29;20234;-82
2021/04/17 18:32:56;;;;;;;5.32;4.50;;;8.90;90.60;;;;;;4940745;29;20234;-80
2021/04/17 18:35:22;;;;;;;4.55;4.10;;;8.80;90.70;;;;;;4941716;29;20721;-80
2021/04/17 18:37:49;;;;;;;5.47;4.63;;;8.80;91.00;;;;;;4941044;29;20215;-80
2021/04/17 18:40:17;;;;;;;4.57;4.20;;;8.80;91.10;;;;;;4941152;29;20209;-80
2021/04/17 18:42:44;;;;;;;5.82;5.22;;;8.80;91.20;;;;;;4941659;29;20665;-80
2021/04/17 18:45:11;;;;;;;6.63;6.03;;;8.80;91.40;;;;;;4941745;29;20722;-81
2021/04/17 18:47:38;;;;;;;7.75;7.13;;;8.60;91.70;;;;;;4940657;29;20217;-80
2021/04/17 18:50:05;;;;;;;7.78;7.07;;;8.60;92.00;;;;;;4941956;29;20288;-83
2021/04/17 18:52:31;;;;;;;7.15;6.45;;;8.60;92.30;;;;;;4943320;29;20696;-83
2021/04/17 18:54:58;;;;;;;6.82;6.30;;;8.60;92.90;;;;;;4934886;29;20222;-83
2021/04/17 18:57:24;;;;;;;6.50;5.90;;;8.60;93.40;;;;;;4930679;29;20285;-83
2021/04/17 18:59:52;;;;;;;5.57;5.07;;;8.50;94.30;;;;;;4935265;29;20202;-84
2021/04/17 19:02:19;;;;;;;4.45;3.92;;;8.40;94.90;;;;;;4933496;29;20212;-82
2021/04/17 19:48:54;;;;;;;6.30;5.50;;;7.50;99.90;;;;;;3115179;27;20219;-81
2021/04/17 19:51:37;;;;;;;6.15;5.28;;;7.50;99.90;;;;;;4908647;29;20253;-84
2021/04/17 19:57:25;;;;;;;5.00;4.70;;;7.50;99.90;;;;;;4904907;29;20195;-83
2021/04/17 20:00:03;;;;;;;5.85;5.35;;;7.50;99.90;;;;;;4907988;29;20218;-83
2021/04/17 20:02:51;;;;;;;;;;;;;;;;;;;;;
2021/04/17 20:05:57;;;;;;;5.18;4.68;;;7.50;99.90;;;;;;4902530;29;20330;-83
2021/04/17 20:12:35;;;;;;;5.95;4.80;;;7.50;99.90;;;;;;4906607;29;20295;-83
2021/04/17 20:18:16;;;;;;;6.00;5.40;;;7.50;99.90;;;;;;4904527;29;20215;-83
2021/04/17 20:21:16;;;;;;;6.22;5.70;;;7.40;99.90;;;;;;4908303;29;20669;-81
2021/04/17 20:23:45;;;;;;;6.18;5.57;;;7.40;99.90;;;;;;4812883;29;20215;-81
2021/04/17 20:26:12;;;;;;;4.40;4.05;;;7.40;99.90;;;;;;4875509;29;20231;-84
2021/04/17 20:28:38;;;;;;;6.40;5.00;;;7.40;99.90;;;;;;4907261;29;20254;-80
2021/04/17 20:31:07;;;;;;;5.78;5.25;;;7.40;99.90;;;;;;4907040;29;20215;-83
2021/04/17 20:33:43;;;;;;;5.15;4.25;;;7.20;99.90;;;;;;4908159;29;20682;-82
2021/04/17 20:36:12;;;;;;;5.15;4.65;;;7.10;99.90;;;;;;4907325;29;20254;-84
2021/04/17 20:39:16;;;;;;;6.78;5.10;;;7.10;99.90;;;;;;4906772;29;20219;-84
2021/04/17 20:42:01;;;;;;;8.95;5.63;;;7.10;99.90;;;;;;4889369;29;20207;-83
2021/04/17 20:47:24;;;;;;;5.53;5.00;;;7.10;99.90;;;;;;4906095;29;20235;-83
2021/04/17 20:50:05;;;;;;;;;;;;;;;;;;;;;
2021/04/17 20:52:59;;;;;;;4.90;4.40;;;7.10;99.90;;;;;;4895229;29;20278;-84
2021/04/17 20:58:47;;;;;;;6.30;5.70;;;7.00;99.90;;;;;;4904460;29;20211;-84
2021/04/17 21:01:30;;;;;;;7.15;5.53;;;7.00;99.90;;;;;;4900402;29;20251;-84
2021/04/17 21:04:08;;;;;;;7.05;6.35;;;7.00;99.90;;;;;;4906261;29;20211;-83
2021/04/17 21:06:35;;;;;;;6.60;6.00;;;7.00;99.90;;;;;;4905933;29;20246;-84
2021/04/17 21:09:14;;;;;;;7.47;6.82;;;7.00;99.90;;;;;;4905933;29;20258;-84
2021/04/17 21:11:49;;;;;;;7.20;6.38;;;6.90;99.90;;;;;;4904966;29;20238;-84
2021/04/17 21:14:23;;;;;;;6.50;5.90;;;6.90;99.90;;;;;;4905106;29;20270;-83
2021/04/17 21:16:58;;;;;;;7.85;7.05;;;6.90;99.90;;;;;;4905945;29;20242;-83
2021/04/17 21:19:25;;;;;;;8.73;7.97;;;6.90;99.90;;;;;;4900315;29;20661;-84
2021/04/17 21:21:57;;;;;;;9.32;6.80;;;6.90;99.90;;;;;;4905008;29;20199;-83
2021/04/17 21:24:31;;;;;;;7.65;6.53;;;6.80;99.90;;;;;;4905079;29;20226;-84
2021/04/17 21:27:02;;;;;;;7.03;6.43;;;6.80;99.90;;;;;;4905574;29;20207;-84
2021/04/17 21:29:43;;;;;;;7.10;6.40;;;6.80;99.90;;;;;;4897419;29;20215;-83
2021/04/17 21:32:10;;;;;;;7.50;6.82;;;6.80;99.90;;;;;;4875287;29;20282;-83
2021/04/17 21:34:46;;;;;;;6.68;5.35;;;6.90;99.90;;;;;;4907353;29;20298;-84
2021/04/17 21:37:14;;;;;;;6.20;5.70;;;6.90;99.90;;;;;;4906689;29;20221;-83
2021/04/17 21:42:45;;;;;;;6.70;5.63;;;6.70;99.90;;;;;;4903185;29;20218;-86
2021/04/17 21:45:30;;;;;;;6.60;5.97;;;6.70;99.90;;;;;;4909281;29;20251;-85
2021/04/17 21:58:55;;;;;;;;;;;;;;;;;;;;;
2021/04/17 22:02:06;;;;;;;;;;;;;;;;;;;;;
2021/04/17 22:04:45;;;;;;;8.95;8.25;;;6.70;99.90;;;;;;4890676;29;20246;-85
2021/04/17 22:07:32;;;;;;;;;;;;;;;;;;;;;
2021/04/17 22:33:55;;;;;;;;;;;;;;;;;;;;;
2021/04/17 22:53:13;;;;;;;;;;;;;;;;;;;;;
2021/04/17 22:56:24;;;;;;;;;;;;;;;;;;;;;
2021/04/17 22:59:46;;;;;;;;;;;;;;;;;;;;;
2021/04/17 23:05:53;;;;;;;6.00;4.88;;;5.60;99.90;;;;;;4802337;29;20324;-87
2021/04/17 23:08:49;;;;;;;4.35;3.95;;;5.70;99.90;;;;;;4795743;29;20331;-87
2021/04/17 23:12:18;;;;;;;;;;;;;;;;;;;;;
2021/04/17 23:27:22;;;;;;;6.22;5.72;;;5.00;99.90;;;;;;4757580;29;20600;-86
2021/04/17 23:30:33;;;;;;;;;;;;;;;;;;;;;
2021/04/17 23:33:31;;;;;;;6.90;6.25;;;4.70;99.90;;;;;;4874080;29;20333;-86
2021/04/17 23:36:01;;;;;;;5.60;5.15;;;4.70;99.90;;;;;;4810269;29;20240;-87
2021/04/17 23:38:29;;;;;;;7.32;6.55;;;4.80;99.90;;;;;;4873269;29;20678;-87
2021/04/17 23:40:55;;;;;;;8.07;5.45;;;4.90;99.90;;;;;;4904274;29;20215;-87
2021/04/17 23:43:22;;;;;;;5.82;5.32;;;4.90;99.90;;;;;;4905111;29;20208;-87
2021/04/17 23:45:48;;;;;;;7.85;6.43;;;5.00;99.90;;;;;;4905603;29;20231;-87
2021/04/17 23:48:14;;;;;;;7.57;6.30;;;5.00;99.90;;;;;;4906324;29;20222;-87
2021/04/17 23:50:41;;;;;;;6.97;6.38;;;5.10;99.90;;;;;;4906843;29;20206;-87
2021/04/17 23:53:07;;;;;;;7.68;6.22;;;5.00;99.90;;;;;;4906215;29;20655;-87
2021/04/17 23:55:35;;;;;;;7.53;6.82;;;5.10;99.90;;;;;;4906162;29;20234;-87
2021/04/17 23:58:01;;;;;;;6.22;5.63;;;5.10;99.90;;;;;;4905926;29;20215;-87
